Time;durP1;ratioP1;P1;durP2;ratioP2;P2;SDS_P1;SDS_P2;PMS_P1;PMS_P2;Temp;Humidity;BMP_temperature;BMP_pressure;BME280_temperature;BME280_humidity;BME280_pressure;Samples;Min_cycle;Max_cycle;Signal;HPM_P1;HPM_P2
2023/07/24 00:10:52;;;;;;;10.82;4.25;;;;;;;16.47;100.00;100322.94;4938776;28;20083;-91
2023/07/24 00:20:01;;;;;;;13.18;4.93;;;;;;;16.45;100.00;100299.69;4930997;29;20035;-91
2023/07/24 00:50:12;;;;;;;13.70;5.63;;;;;;;16.37;100.00;100276.41;4996088;28;20042;-91
2023/07/24 00:56:02;;;;;;;21.15;5.60;;;;;;;16.39;100.00;100278.88;4936226;29;20079;-91
2023/07/24 01:02:03;;;;;;;17.30;5.70;;;;;;;16.36;100.00;100265.69;4930793;29;20568;-91
2023/07/24 01:04:37;;;;;;;17.75;6.78;;;;;;;16.34;100.00;100260.47;4972636;28;20054;-91
2023/07/24 01:07:22;;;;;;;16.17;6.07;;;;;;;16.34;100.00;100256.94;4917048;29;20466;-91
2023/07/24 01:09:50;;;;;;;20.98;6.90;;;;;;;16.35;100.00;100253.91;4971470;28;20066;-91
2023/07/24 01:12:22;;;;;;;19.38;7.07;;;;;;;16.40;100.00;100261.31;4978514;28;20516;-90
2023/07/24 01:15:17;;;;;;;;;;;;;;;;;;;;;
2023/07/24 01:17:55;;;;;;;23.63;7.43;;;;;;;16.40;100.00;100247.63;4996450;28;20038;-90
2023/07/24 01:20:36;;;;;;;;;;;;;;;;;;;;;
2023/07/24 01:30:04;;;;;;;42.87;8.60;;;;;;;16.42;100.00;100235.34;4995421;28;20036;-90
2023/07/24 01:32:37;;;;;;;145.52;12.50;;;;;;;16.46;100.00;100249.28;4977702;28;20034;-92
2023/07/24 01:35:11;;;;;;;116.30;11.48;;;;;;;16.42;100.00;100232.59;4962666;28;20034;-90
2023/07/24 01:44:18;;;;;;;23.40;7.13;;;;;;;16.42;100.00;100218.09;4898660;29;20037;-90
2023/07/24 01:50:17;;;;;;;25.63;7.63;;;;;;;16.48;100.00;100226.03;4897316;29;20084;-89
2023/07/24 01:55:41;;;;;;;22.27;7.78;;;;;;;16.47;100.00;100213.44;4980122;28;20081;-89
2023/07/24 02:05:20;;;;;;;16.45;6.43;;;;;;;16.45;100.00;100195.66;4994915;28;20104;-90
2023/07/24 02:25:28;;;;;;;20.08;6.95;;;;;;;16.47;100.00;100183.31;4994669;28;20034;-90
2023/07/24 02:34:54;;;;;;;28.10;7.80;;;;;;;16.42;100.00;100177.03;4994664;28;20092;-90
2023/07/24 02:37:22;;;;;;;26.70;8.32;;;;;;;16.45;100.00;100182.78;4976908;28;20037;-89
2023/07/24 02:39:53;;;;;;;29.88;9.00;;;;;;;16.45;100.00;100192.91;4977099;28;20452;-89
2023/07/24 02:46:20;;;;;;;30.13;9.20;;;;;;;16.45;100.00;100192.91;4994631;28;20109;-91
2023/07/24 02:52:18;;;;;;;;;;;;;;;;;;;;;
2023/07/24 02:58:19;;;;;;;19.85;7.63;;;;;;;16.24;100.00;100176.44;4934426;29;20039;-90
2023/07/24 03:00:53;;;;;;;18.30;7.13;;;;;;;16.15;100.00;100167.13;4918137;29;20488;-89
2023/07/24 03:03:19;;;;;;;15.10;6.82;;;;;;;16.09;100.00;100192.78;4903403;29;20087;-90
2023/07/24 03:09:09;;;;;;;13.23;5.65;;;;;;;15.86;100.00;100148.41;4934550;29;20046;-91
2023/07/24 03:11:39;;;;;;;10.60;5.50;;;;;;;15.78;100.00;100147.00;4918084;29;20110;-91
2023/07/24 03:14:05;;;;;;;17.20;5.60;;;;;;;15.76;100.00;100151.88;4933465;29;20434;-90
2023/07/24 03:16:44;;;;;;;;;;;;;;;;;;;;;
2023/07/24 03:19:21;;;;;;;12.50;4.80;;;;;;;15.63;100.00;100171.50;4979756;28;20042;-92
2023/07/24 03:25:47;;;;;;;12.70;4.75;;;;;;;15.45;100.00;100175.50;4898919;29;20560;-92
2023/07/24 03:38:14;;;;;;;10.82;4.38;;;;;;;15.32;100.00;100148.66;4956955;28;20046;-90
2023/07/24 03:47:34;;;;;;;10.57;4.25;;;;;;;15.29;100.00;100138.25;4808210;29;20050;-91
2023/07/24 03:53:27;;;;;;;15.45;4.85;;;;;;;15.38;100.00;100144.84;4880838;29;20077;-91
2023/07/24 03:59:17;;;;;;;15.15;5.43;;;;;;;15.42;100.00;100141.31;4881802;29;20052;-91
2023/07/24 04:01:57;;;;;;;14.85;5.72;;;;;;;15.41;100.00;100145.16;4863982;29;20049;-92
2023/07/24 04:04:35;;;;;;;18.30;6.00;;;;;;;15.44;100.00;100155.56;4880673;29;20187;-91
2023/07/24 04:07:01;;;;;;;16.60;5.70;;;;;;;15.43;100.00;100156.63;4880511;29;20069;-91
2023/07/24 04:09:32;;;;;;;16.60;5.63;;;;;;;15.46;100.00;100160.75;4896775;29;20076;-92
2023/07/24 04:12:07;;;;;;;26.08;6.72;;;;;;;15.50;100.00;100163.78;4896303;29;20498;-90
2023/07/24 04:14:40;;;;;;;15.80;6.07;;;;;;;15.48;100.00;100169.50;4923967;28;20045;-91
2023/07/24 04:17:16;;;;;;;23.67;6.85;;;;;;;15.51;100.00;100179.09;4963285;28;20034;-91
2023/07/24 04:20:05;;;;;;;24.65;6.30;;;;;;;15.48;100.00;100179.63;4979449;28;20129;-92
2023/07/24 04:22:57;;;;;;;16.85;6.35;;;;;;;15.49;100.00;100176.63;5012961;28;20030;-91
2023/07/24 04:34:24;;;;;;;18.63;5.88;;;;;;;15.39;100.00;100177.38;4936657;29;20127;-92
2023/07/24 04:47:12;;;;;;;;;;;;;;;;;;;;;
2023/07/24 05:06:38;;;;;;;19.02;7.70;;;;;;;14.97;100.00;100170.00;4936333;29;20051;-90
2023/07/24 05:13:08;;;;;;;;;;;;;;;;;;;;;
2023/07/24 05:19:56;;;;;;;21.30;7.90;;;;;;;15.06;100.00;100194.94;4917627;29;20046;-90
2023/07/24 05:25:42;;;;;;;19.50;7.93;;;;;;;15.04;100.00;100192.47;4917202;29;20116;-90
2023/07/24 05:28:09;;;;;;;21.90;8.97;;;;;;;15.04;100.00;100191.63;4900382;29;20429;-90
2023/07/24 05:30:34;;;;;;;21.60;8.18;;;;;;;15.10;100.00;100196.03;4932414;28;20042;-90
2023/07/24 05:33:00;;;;;;;20.73;9.17;;;;;;;15.10;100.00;100187.84;4977984;28;20022;-90
2023/07/24 05:35:28;;;;;;;25.10;9.68;;;;;;;15.12;100.00;100185.69;4977875;28;20026;-92
2023/07/24 05:37:54;;;;;;;28.50;10.40;;;;;;;15.18;100.00;100194.75;4977884;28;20446;-91
2023/07/24 05:40:32;;;;;;;27.92;10.32;;;;;;;15.23;100.00;100194.78;4978601;28;20034;-94
2023/07/24 05:43:05;;;;;;;25.57;10.43;;;;;;;15.24;100.00;100191.78;4952205;28;20041;-92
2023/07/24 05:45:30;;;;;;;29.58;9.93;;;;;;;15.25;100.00;100190.69;4962211;28;20045;-90
2023/07/24 05:47:56;;;;;;;27.38;10.70;;;;;;;15.23;100.00;100189.31;5010041;28;20031;-92
2023/07/24 05:50:26;;;;;;;23.90;10.40;;;;;;;15.29;100.00;100198.38;4978056;28;20026;-92
2023/07/24 05:52:51;;;;;;;26.42;10.30;;;;;;;15.30;100.00;100206.31;4962092;28;20157;-92
2023/07/24 05:55:19;;;;;;;23.90;9.63;;;;;;;15.30;100.00;100214.50;4977487;28;20121;-91
2023/07/24 05:57:45;;;;;;;28.60;10.10;;;;;;;15.35;100.00;100210.97;4945455;28;20053;-91
2023/07/24 06:00:11;;;;;;;25.10;9.77;;;;;;;15.40;100.00;100211.84;4945231;28;20386;-85
2023/07/24 06:02:36;;;;;;;28.03;10.93;;;;;;;15.46;100.00;100211.84;4988655;28;20129;-87
2023/07/24 06:05:01;;;;;;;26.03;10.30;;;;;;;15.47;100.00;100208.03;4942422;28;20282;-87
2023/07/24 06:07:27;;;;;;;29.17;10.50;;;;;;;15.49;100.00;100200.44;4958357;28;20085;-89
2023/07/24 06:09:52;;;;;;;32.63;10.93;;;;;;;15.58;100.00;100216.03;4941585;28;20107;-89
2023/07/24 06:12:18;;;;;;;29.27;10.93;;;;;;;15.58;100.00;100217.97;4957632;28;20031;-89
2023/07/24 06:14:43;;;;;;;33.93;10.77;;;;;;;15.57;100.00;100217.13;4975375;28;20033;-88
2023/07/24 06:17:09;;;;;;;28.50;10.17;;;;;;;15.70;100.00;100232.25;4975015;28;20038;-88
2023/07/24 06:19:34;;;;;;;27.20;10.07;;;;;;;15.67;100.00;100218.28;4957947;28;20073;-88
2023/07/24 06:22:00;;;;;;;28.83;10.48;;;;;;;15.82;100.00;100214.84;4957786;28;20121;-88
2023/07/24 06:24:25;;;;;;;26.63;8.73;;;;;;;15.70;100.00;100221.31;4941511;28;20058;-88
2023/07/24 06:26:50;;;;;;;21.47;9.07;;;;;;;15.65;100.00;100226.75;4958765;28;20406;-88
2023/07/24 06:29:18;;;;;;;18.00;8.50;;;;;;;15.72;100.00;100221.88;4958298;28;20387;-88
2023/07/24 06:31:44;;;;;;;22.67;9.05;;;;;;;15.78;100.00;100214.53;4958569;28;20034;-88
2023/07/24 06:34:09;;;;;;;21.37;9.37;;;;;;;15.78;100.00;100225.47;4958909;28;20041;-94
2023/07/24 06:36:37;;;;;;;23.23;8.70;;;;;;;15.80;100.00;100215.13;4946139;28;20046;-95
2023/07/24 06:39:03;;;;;;;24.03;8.57;;;;;;;15.83;100.00;100217.31;4949206;28;20035;-95
2023/07/24 06:41:28;;;;;;;21.08;7.93;;;;;;;15.74;100.00;100221.63;4974784;28;20094;-96
2023/07/24 06:43:54;;;;;;;19.13;7.57;;;;;;;15.65;100.00;100214.97;4995517;28;20094;-95
2023/07/24 06:46:19;;;;;;;18.17;7.43;;;;;;;15.63;100.00;100217.16;4979080;28;20014;-94
2023/07/24 06:48:47;;;;;;;19.45;8.23;;;;;;;15.64;100.00;100216.91;4997447;28;20086;-95
2023/07/24 06:51:14;;;;;;;23.77;8.17;;;;;;;15.71;100.00;100222.16;4997970;28;20014;-95
2023/07/24 06:53:40;;;;;;;19.75;7.93;;;;;;;15.72;100.00;100219.16;4976882;28;20047;-95
2023/07/24 06:56:05;;;;;;;18.93;8.20;;;;;;;15.71;100.00;100214.75;4998251;28;20039;-95
2023/07/24 06:58:34;;;;;;;18.85;7.40;;;;;;;15.68;100.00;100212.56;4979424;28;20026;-95
2023/07/24 07:00:59;;;;;;;21.05;8.40;;;;;;;15.73;100.00;100218.03;4973094;28;20053;-93
2023/07/24 07:03:25;;;;;;;14.77;7.20;;;;;;;15.66;100.00;100217.44;4980077;28;20061;-93
2023/07/24 07:05:50;;;;;;;21.37;7.77;;;;;;;15.78;100.00;100222.75;4966735;28;20026;-94
2023/07/24 07:08:16;;;;;;;17.43;7.10;;;;;;;15.74;100.00;100219.69;4982360;28;20463;-94
2023/07/24 07:10:44;;;;;;;15.10;7.18;;;;;;;15.68;100.00;100218.03;4982305;28;20034;-96
2023/07/24 07:13:09;;;;;;;15.32;6.55;;;;;;;15.61;100.00;100212.78;4998926;28;20121;-95
2023/07/24 07:15:36;;;;;;;15.40;7.10;;;;;;;15.54;100.00;100208.63;4981899;28;20124;-93
2023/07/24 07:18:02;;;;;;;14.45;7.13;;;;;;;15.44;100.00;100217.59;4965844;28;20042;-92
2023/07/24 07:20:35;;;;;;;14.87;6.33;;;;;;;15.43;100.00;100205.84;4982545;28;20084;-95
2023/07/24 07:23:05;;;;;;;12.88;5.57;;;;;;;15.47;100.00;100208.84;4967114;28;20034;-96
2023/07/24 07:25:31;;;;;;;13.15;5.78;;;;;;;15.52;100.00;100197.97;4999072;28;20101;-95
2023/07/24 07:27:56;;;;;;;11.67;4.30;;;;;;;15.27;100.00;100206.81;4981722;28;20077;-96
2023/07/24 07:30:22;;;;;;;9.43;4.57;;;;;;;15.18;100.00;100213.88;4981508;28;20030;-95
2023/07/24 07:32:48;;;;;;;12.27;4.83;;;;;;;15.13;100.00;100211.91;4998878;28;20034;-95
2023/07/24 07:35:14;;;;;;;8.13;4.10;;;;;;;15.17;100.00;100209.47;4981778;28;20725;-96
2023/07/24 07:37:43;;;;;;;9.07;4.68;;;;;;;15.20;100.00;100212.50;4982600;28;20069;-96
2023/07/24 07:40:14;;;;;;;7.33;4.87;;;;;;;15.27;100.00;100225.97;4984013;28;20022;-96
2023/07/24 07:42:44;;;;;;;8.52;4.90;;;;;;;15.29;100.00;100223.78;4981992;28;20030;-95
2023/07/24 07:45:10;;;;;;;8.18;4.28;;;;;;;15.27;100.00;100213.09;4982293;28;20125;-96
2023/07/24 07:47:38;;;;;;;10.35;5.50;;;;;;;15.44;100.00;100207.50;5000354;28;20431;-96
2023/07/24 07:50:06;;;;;;;10.87;5.50;;;;;;;15.74;100.00;100200.56;4974779;28;20031;-96
2023/07/24 07:52:32;;;;;;;12.90;6.50;;;;;;;15.97;100.00;100206.69;4970288;28;20030;-96
2023/07/24 07:55:00;;;;;;;12.32;6.80;;;;;;;16.06;100.00;100204.28;4984549;28;20033;-96
2023/07/24 07:57:26;;;;;;;12.30;6.77;;;;;;;16.12;100.00;100212.25;4981680;28;20026;-95
2023/07/24 08:00:06;;;;;;;;;;;;;;;;;;;;;
2023/07/24 08:02:39;;;;;;;14.10;6.53;;;;;;;16.13;100.00;100219.34;5007369;28;20570;-95
2023/07/24 08:05:08;;;;;;;12.03;6.33;;;;;;;16.02;100.00;100216.84;4997757;28;20066;-94
2023/07/24 08:07:34;;;;;;;12.60;6.35;;;;;;;15.94;100.00;100215.44;4980450;28;20030;-95
2023/07/24 08:09:59;;;;;;;11.35;6.25;;;;;;;16.05;100.00;100213.59;4964789;28;20034;-96
2023/07/24 08:12:25;;;;;;;13.93;7.03;;;;;;;16.21;100.00;100215.28;5012182;28;20129;-96
2023/07/24 08:14:51;;;;;;;10.90;6.90;;;;;;;16.01;100.00;100213.28;4997609;28;20035;-96
2023/07/24 08:17:19;;;;;;;10.77;6.68;;;;;;;15.93;100.00;100208.34;4980423;28;20470;-96
2023/07/24 08:19:45;;;;;;;14.03;7.30;;;;;;;15.97;100.00;100203.97;4998388;28;20105;-96
2023/07/24 08:22:13;;;;;;;11.88;7.72;;;;;;;15.99;100.00;100206.44;5013496;28;20065;-96
2023/07/24 08:24:38;;;;;;;14.50;8.40;;;;;;;16.25;100.00;100202.69;4980576;28;20030;-96
2023/07/24 08:27:04;;;;;;;12.60;8.07;;;;;;;16.38;100.00;100204.09;4997462;28;20108;-96
2023/07/24 08:29:34;;;;;;;13.68;9.35;;;;;;;16.39;100.00;100199.47;4997673;28;20045;-96
2023/07/24 08:32:00;;;;;;;13.07;7.72;;;;;;;16.41;100.00;100208.22;4980525;28;20034;-96
2023/07/24 08:34:28;;;;;;;12.27;8.03;;;;;;;16.38;100.00;100208.78;4980391;28;20033;-96
2023/07/24 08:36:54;;;;;;;14.95;8.73;;;;;;;16.44;100.00;100213.16;4982617;28;20030;-96
2023/07/24 08:39:19;;;;;;;9.47;7.30;;;;;;;16.34;100.00;100205.72;4981176;28;20387;-95
2023/07/24 08:41:45;;;;;;;14.90;8.27;;;;;;;16.38;100.00;100215.06;4997363;28;20118;-95
2023/07/24 08:44:11;;;;;;;14.65;8.35;;;;;;;16.44;100.00;100208.50;4963689;28;20464;-95
2023/07/24 08:46:45;;;;;;;13.67;7.50;;;;;;;16.41;100.00;100222.72;4979686;28;20061;-96
2023/07/24 08:49:14;;;;;;;13.43;7.88;;;;;;;16.47;100.00;100224.38;4980511;28;20030;-95
2023/07/24 08:51:44;;;;;;;9.98;6.85;;;;;;;16.24;100.00;100205.69;4997266;28;20035;-95
2023/07/24 08:56:52;;;;;;;13.67;7.80;;;;;;;16.27;100.00;100203.25;5210648;23;20054;-96
2023/07/24 08:59:22;;;;;;;13.02;7.72;;;;;;;16.29;100.00;100187.38;5099055;23;20054;-96
2023/07/24 09:02:03;;;;;;;13.57;7.95;;;;;;;16.42;100.00;100196.19;4962237;28;20028;-96
2023/07/24 09:05:07;;;;;;;12.93;7.88;;;;;;;16.42;100.00;100196.19;4954376;29;20031;-96
2023/07/24 09:07:55;;;;;;;13.48;8.38;;;;;;;16.52;100.00;100188.00;4965360;28;20063;-96
2023/07/24 09:10:37;;;;;;;13.27;7.80;;;;;;;16.92;100.00;100171.88;4976631;28;20074;-96
2023/07/24 09:25:03;;;;;;;6.60;4.43;;;;;;;18.04;100.00;100164.50;5430846;23;20686;-93
2023/07/24 09:28:16;;;;;;;;;;;;;;;;;;;;;
2023/07/24 09:30:53;;;;;;;5.53;4.30;;;;;;;17.78;100.00;100153.63;4863655;29;20064;-95
2023/07/24 09:33:23;;;;;;;5.22;3.90;;;;;;;17.80;100.00;100151.41;4851711;29;20120;-96
2023/07/24 09:36:03;;;;;;;4.60;3.85;;;;;;;17.71;100.00;100144.84;4848306;29;20034;-96
2023/07/24 09:38:43;;;;;;;5.47;3.50;;;;;;;17.87;100.00;100124.47;4867279;29;20046;-96
2023/07/24 09:41:09;;;;;;;3.55;3.10;;;;;;;17.98;100.00;100128.06;4875315;29;20079;-96
2023/07/24 10:41:20;;;;;;;5.90;5.03;;;;;;;17.23;100.00;100139.81;4312504;23;20094;-96
2023/07/24 10:43:48;;;;;;;5.80;4.50;;;;;;;17.48;100.00;100140.81;4851219;29;20034;-94
2023/07/24 10:46:26;;;;;;;5.43;4.40;;;;;;;17.77;100.00;100156.63;4872845;29;20094;-96
2023/07/24 10:49:10;;;;;;;;;;;;;;;;;;;;;
2023/07/24 10:51:39;;;;;;;5.25;4.13;;;;;;;18.07;100.00;100155.72;4884736;29;20048;-96
2023/07/24 10:56:39;;;;;;;4.13;3.72;;;;;;;18.33;100.00;100145.41;5635525;23;20866;-95
2023/07/24 11:41:51;;;;;;;6.38;5.28;;;;;;;19.12;100.00;100172.03;5045227;23;20073;-96
2023/07/24 11:49:37;;;;;;;6.10;5.27;;;;;;;19.15;100.00;100149.47;5878237;23;20020;-95
2023/07/24 12:15:12;;;;;;;5.85;5.13;;;;;;;21.03;97.86;100127.09;5879713;24;20031;-93
2023/07/24 12:17:41;;;;;;;6.47;5.35;;;;;;;21.04;96.99;100130.69;4806457;29;20112;-96
2023/07/24 12:27:55;;;;;;;9.90;5.03;;;;;;;23.03;85.21;100121.13;5668501;24;20283;-92
2023/07/24 12:30:20;;;;;;;6.05;5.43;;;;;;;24.43;79.91;100131.81;5411256;24;20130;-85
2023/07/24 12:32:45;;;;;;;6.83;4.47;;;;;;;24.99;75.21;100121.63;4809793;29;20062;-90
2023/07/24 12:35:11;;;;;;;5.73;5.23;;;;;;;24.51;75.76;100117.94;4793804;29;20062;-91
2023/07/24 12:37:39;;;;;;;6.20;5.60;;;;;;;22.98;83.82;100128.75;4791597;29;20129;-90
2023/07/24 12:40:05;;;;;;;7.80;6.63;;;;;;;21.20;97.28;100121.00;4792445;29;20030;-89
2023/07/24 12:42:30;;;;;;;8.00;6.80;;;;;;;20.01;100.00;100123.19;4809050;29;20034;-88
2023/07/24 12:44:57;;;;;;;7.27;6.57;;;;;;;19.31;100.00;100116.28;4792109;29;20416;-89
2023/07/24 12:47:23;;;;;;;7.47;6.57;;;;;;;19.11;100.00;100110.72;4777246;29;20039;-89
2023/07/24 12:49:48;;;;;;;8.13;6.83;;;;;;;19.38;100.00;100103.00;4791799;29;20035;-89
2023/07/24 12:52:14;;;;;;;8.40;7.50;;;;;;;19.42;100.00;100115.06;4792146;29;20284;-89
2023/07/24 12:54:39;;;;;;;8.60;7.80;;;;;;;19.58;100.00;100111.03;4808029;29;20047;-89
2023/07/24 12:57:05;;;;;;;10.60;8.80;;;;;;;20.48;100.00;100116.69;4807293;29;20072;-89
2023/07/24 12:59:30;;;;;;;11.10;8.10;;;;;;;21.94;100.00;100112.94;4776881;29;20043;-89
2023/07/24 13:01:56;;;;;;;9.53;7.40;;;;;;;23.49;90.02;100108.00;4792555;29;20437;-90
2023/07/24 13:04:22;;;;;;;8.27;7.07;;;;;;;25.47;79.20;100116.94;4792097;29;20046;-90
2023/07/24 13:06:51;;;;;;;13.93;6.68;;;;;;;25.71;70.60;100110.75;4808345;29;20035;-92
2023/07/24 14:08:32;;;;;;;18.60;12.30;;;;;;;16.46;100.00;100137.03;4754533;29;20087;-92
2023/07/24 14:22:09;;;;;;;;;;;;;;;;;;;;;
2023/07/24 14:31:09;;;;;;;7.13;5.10;;;;;;;25.93;82.40;100125.50;4733749;30;20052;-91
2023/07/24 14:37:29;;;;;;;7.20;4.65;;;;;;;28.53;67.47;100110.06;4699307;30;20068;-92
2023/07/24 17:35:56;;;;;;;;;;;;;;;;;;;;;
2023/07/24 17:38:25;;;;;;;3.47;1.40;;;;;;;19.64;82.28;100274.94;4804681;29;20061;-91
2023/07/24 17:40:55;;;;;;;3.60;1.15;;;;;;;19.50;82.19;100273.97;4792182;29;20038;-90
2023/07/24 17:43:26;;;;;;;2.63;0.90;;;;;;;19.44;82.82;100289.72;4776415;29;20119;-90
2023/07/24 17:45:52;;;;;;;2.72;1.00;;;;;;;19.37;83.48;100292.00;4777646;29;20101;-90
2023/07/24 17:48:25;;;;;;;3.03;1.27;;;;;;;19.27;84.00;100292.88;4791532;29;20038;-90
2023/07/24 17:50:53;;;;;;;4.43;1.08;;;;;;;19.20;84.84;100306.13;4808310;29;20039;-91
2023/07/24 17:53:21;;;;;;;3.72;1.20;;;;;;;19.09;84.65;100312.84;4791107;29;20097;-90
2023/07/24 17:55:54;;;;;;;3.07;1.17;;;;;;;18.96;85.96;100303.28;4791388;29;20039;-91
2023/07/24 17:58:24;;;;;;;5.53;1.23;;;;;;;18.94;85.55;100297.25;4793611;29;20100;-91
2023/07/24 18:00:54;;;;;;;3.90;1.35;;;;;;;18.95;84.35;100312.63;4796197;29;20461;-91
2023/07/24 18:03:20;;;;;;;2.83;1.50;;;;;;;18.86;85.21;100309.66;4781772;29;20035;-91
2023/07/24 18:05:52;;;;;;;3.33;1.20;;;;;;;18.83;85.03;100306.63;4810966;29;20492;-90
2023/07/24 18:08:20;;;;;;;3.08;1.20;;;;;;;18.76;86.26;100320.69;4793297;29;20034;-91
2023/07/24 18:10:53;;;;;;;2.58;1.20;;;;;;;18.61;86.34;100327.06;4791332;29;20027;-90
2023/07/24 18:13:28;;;;;;;2.85;1.10;;;;;;;18.43;87.03;100319.47;4791436;29;20039;-91
2023/07/24 18:16:04;;;;;;;4.17;1.20;;;;;;;18.26;86.76;100328.03;4791964;29;20039;-91
2023/07/24 18:18:34;;;;;;;5.35;1.20;;;;;;;18.24;87.79;100333.81;4791234;29;20084;-91
2023/07/24 18:21:04;;;;;;;3.33;1.00;;;;;;;18.29;88.95;100328.31;4791014;29;20058;-90
2023/07/24 18:23:37;;;;;;;3.42;1.20;;;;;;;18.56;88.10;100325.19;4807073;29;20034;-90
2023/07/24 18:26:05;;;;;;;2.83;1.30;;;;;;;18.69;85.93;100322.91;4790569;29;20046;-90
2023/07/24 18:28:46;;;;;;;3.73;1.53;;;;;;;18.75;85.36;100319.06;4790188;29;20035;-90
2023/07/24 18:31:21;;;;;;;3.00;1.17;;;;;;;18.73;84.62;100322.09;4790990;29;20038;-90
2023/07/24 18:33:51;;;;;;;2.22;1.30;;;;;;;18.67;84.99;100330.63;4776619;29;20125;-90
2023/07/24 18:36:19;;;;;;;3.22;1.60;;;;;;;18.34;85.64;100332.97;4760581;29;20062;-90
2023/07/24 18:38:48;;;;;;;4.30;1.63;;;;;;;18.14;87.89;100342.06;4776090;29;20039;-90
2023/07/24 18:41:14;;;;;;;3.87;1.70;;;;;;;17.94;87.70;100337.44;4790422;29;20031;-90
2023/07/24 18:43:44;;;;;;;1.98;1.67;;;;;;;17.80;89.18;100342.66;4799027;29;20031;-90
2023/07/24 18:46:12;;;;;;;2.35;2.10;;;;;;;17.76;90.30;100342.41;4793866;29;20486;-90
2023/07/24 18:48:45;;;;;;;3.83;2.05;;;;;;;17.81;90.37;100369.00;4824852;29;20042;-90
2023/07/24 18:51:19;;;;;;;4.43;1.90;;;;;;;17.68;90.32;100348.44;4809031;29;20042;-89
2023/07/24 18:53:47;;;;;;;3.47;2.13;;;;;;;17.58;91.08;100345.69;4808826;29;20026;-89
2023/07/24 18:56:19;;;;;;;3.67;2.10;;;;;;;17.57;91.73;100371.47;4794798;29;20391;-89
2023/07/24 18:58:49;;;;;;;3.38;2.30;;;;;;;17.46;92.04;100367.91;4812841;29;20121;-89
2023/07/24 19:01:24;;;;;;;;;;;;;;;;;;;;;
2023/07/24 19:03:53;;;;;;;2.87;2.23;;;;;;;17.22;94.15;100371.16;4813988;29;20050;-89
2023/07/24 19:06:26;;;;;;;3.22;2.42;;;;;;;17.16;95.22;100367.56;4811890;29;20030;-89
2023/07/24 19:08:51;;;;;;;5.15;2.13;;;;;;;17.19;95.45;100380.75;4827928;29;20041;-89
2023/07/24 19:11:20;;;;;;;4.03;2.00;;;;;;;17.00;94.32;100377.69;4811940;29;20042;-89
2023/07/24 19:13:50;;;;;;;3.60;2.08;;;;;;;16.97;94.84;100385.63;4811773;29;20450;-89
2023/07/24 19:16:18;;;;;;;3.30;2.10;;;;;;;16.89;96.04;100378.75;4797236;29;20157;-89
2023/07/24 19:18:49;;;;;;;5.18;2.40;;;;;;;16.85;95.81;100388.56;4811609;29;20046;-91
2023/07/24 19:21:14;;;;;;;3.63;2.28;;;;;;;16.83;97.11;100388.84;4812112;29;20035;-91
2023/07/24 19:23:42;;;;;;;5.03;1.80;;;;;;;16.81;97.44;100384.72;4811260;29;20034;-91
2023/07/24 19:26:13;;;;;;;7.32;1.92;;;;;;;16.75;96.69;100394.81;4796916;29;20130;-90
2023/07/24 19:28:41;;;;;;;3.10;2.03;;;;;;;16.73;97.66;100386.06;4811883;29;20041;-90
2023/07/24 19:31:08;;;;;;;3.87;1.80;;;;;;;16.76;97.65;100401.97;4811383;29;20031;-90
2023/07/24 19:33:45;;;;;;;3.53;1.75;;;;;;;16.67;97.21;100404.38;4811567;29;20494;-90
2023/07/24 19:36:13;;;;;;;3.38;1.42;;;;;;;16.58;98.10;100406.00;4797072;29;20411;-90
2023/07/24 19:38:39;;;;;;;3.78;1.40;;;;;;;16.54;98.42;100402.13;4796120;29;20049;-89
2023/07/24 19:41:04;;;;;;;3.20;1.60;;;;;;;16.55;97.72;100420.22;4811899;29;20035;-89
2023/07/24 19:43:30;;;;;;;2.70;1.30;;;;;;;16.58;98.85;100427.91;4811011;29;20391;-90
2023/07/24 19:46:00;;;;;;;2.10;1.13;;;;;;;16.42;97.79;100426.19;4811627;29;20034;-90
2023/07/24 19:48:33;;;;;;;4.50;1.43;;;;;;;16.40;98.49;100450.22;4811581;29;20041;-89
2023/07/24 19:50:59;;;;;;;4.03;1.58;;;;;;;16.26;98.35;100445.22;4811439;29;20030;-89
2023/07/24 19:53:35;;;;;;;3.60;1.53;;;;;;;16.18;99.68;100447.63;4827351;29;20524;-89
2023/07/24 19:56:01;;;;;;;3.33;1.42;;;;;;;16.08;100.00;100449.19;4811065;29;20066;-89
2023/07/24 19:58:36;;;;;;;3.00;1.20;;;;;;;16.10;100.00;100457.16;4811376;29;20492;-90
2023/07/24 20:01:13;;;;;;;3.22;1.30;;;;;;;16.04;100.00;100464.50;4811459;29;20116;-91
2023/07/24 20:03:43;;;;;;;1.88;1.17;;;;;;;16.07;100.00;100469.44;4812001;29;20096;-92
2023/07/24 20:06:11;;;;;;;3.20;1.30;;;;;;;16.01;99.71;100469.66;4796083;29;20467;-91
2023/07/24 20:08:37;;;;;;;2.65;1.30;;;;;;;15.99;100.00;100467.19;4795532;29;20038;-90
2023/07/24 20:11:07;;;;;;;3.40;1.25;;;;;;;15.98;100.00;100486.63;4810862;29;20034;-90
2023/07/24 20:13:41;;;;;;;2.92;0.95;;;;;;;15.92;100.00;100470.13;4810956;29;20458;-89
2023/07/24 20:16:10;;;;;;;1.97;1.10;;;;;;;15.86;100.00;100473.09;4796978;29;20030;-89
2023/07/24 20:18:37;;;;;;;3.97;1.23;;;;;;;15.88;100.00;100479.13;4810480;29;20117;-90
2023/07/24 20:21:05;;;;;;;1.83;1.10;;;;;;;15.84;100.00;100478.84;4827116;29;20523;-90
2023/07/24 20:23:31;;;;;;;3.25;1.25;;;;;;;15.82;100.00;100481.00;4827218;29;20034;-90
2023/07/24 20:25:59;;;;;;;2.30;1.20;;;;;;;15.84;100.00;100486.19;4811167;29;20558;-89
2023/07/24 20:28:25;;;;;;;3.00;1.30;;;;;;;15.87;100.00;100485.69;4810368;29;20062;-89
2023/07/24 20:30:58;;;;;;;1.92;1.40;;;;;;;15.83;100.00;100484.56;4810553;29;20035;-89
2023/07/24 20:33:26;;;;;;;3.77;1.57;;;;;;;15.88;100.00;100495.53;4810987;29;20038;-89
2023/07/24 20:35:54;;;;;;;2.10;1.17;;;;;;;15.84;100.00;100489.78;4810907;29;20051;-93
2023/07/24 20:38:32;;;;;;;4.43;1.98;;;;;;;15.79;100.00;100496.00;4810041;29;20107;-90
2023/07/24 20:40:58;;;;;;;4.40;1.67;;;;;;;15.76;100.00;100495.69;4811179;29;20035;-90
2023/07/24 20:43:23;;;;;;;6.25;1.48;;;;;;;15.67;100.00;100489.84;4810657;29;20038;-91
2023/07/24 20:45:51;;;;;;;4.27;1.63;;;;;;;15.67;100.00;100505.44;4795978;29;20050;-92
2023/07/24 20:48:24;;;;;;;6.45;1.40;;;;;;;15.58;100.00;100494.94;4811528;29;20073;-92
2023/07/24 20:57:58;;;;;;;2.67;1.35;;;;;;;15.52;100.00;100501.44;4827235;29;20042;-92
2023/07/24 21:58:29;;;;;;;7.85;1.75;;;;;;;14.31;100.00;100498.47;4825952;29;20583;-91
2023/07/24 22:01:15;;;;;;;6.72;2.15;;;;;;;14.12;100.00;100499.78;4809717;29;20535;-91
2023/07/24 22:07:27;;;;;;;6.63;2.10;;;;;;;14.02;100.00;100505.88;4825949;29;20407;-91
2023/07/24 22:13:50;;;;;;;4.25;1.50;;;;;;;13.87;100.00;100509.19;4825780;29;20099;-92
2023/07/24 22:16:49;;;;;;;3.97;1.65;;;;;;;13.78;100.00;100508.75;4809372;29;20042;-91
2023/07/24 22:19:18;;;;;;;5.50;1.90;;;;;;;13.64;100.00;100493.75;4810088;29;20068;-92
2023/07/24 22:22:04;;;;;;;6.07;1.92;;;;;;;13.62;100.00;100495.91;4809966;29;20038;-92
2023/07/24 22:32:02;;;;;;;6.90;1.67;;;;;;;13.50;100.00;100510.41;4825065;29;20050;-92
2023/07/24 22:39:04;;;;;;;6.28;1.67;;;;;;;13.31;100.00;100508.91;4787328;30;20037;-93
2023/07/24 22:45:21;;;;;;;5.32;1.65;;;;;;;13.25;100.00;100518.06;4787182;30;20042;-93
2023/07/24 22:51:14;;;;;;;4.00;2.00;;;;;;;13.13;100.00;100518.09;4787398;30;20143;-92
2023/07/24 22:57:04;;;;;;;3.70;1.95;;;;;;;13.04;100.00;100514.91;4785202;29;20063;-92
2023/07/24 23:03:19;;;;;;;6.60;2.40;;;;;;;13.00;100.00;100527.34;4787191;30;20130;-92
2023/07/24 23:09:07;;;;;;;5.13;2.17;;;;;;;12.90;100.00;100522.53;4786909;30;20039;-92
2023/07/24 23:11:32;;;;;;;8.07;2.78;;;;;;;12.89;100.00;100525.44;4780904;29;20043;-92
2023/07/24 23:17:25;;;;;;;10.15;3.40;;;;;;;12.76;100.00;100521.91;4807095;29;20446;-93
2023/07/24 23:19:55;;;;;;;5.93;2.65;;;;;;;12.74;100.00;100525.94;4791608;29;20468;-91
2023/07/24 23:22:45;;;;;;;7.77;2.87;;;;;;;12.70;100.00;100520.16;4791356;29;20069;-91
2023/07/24 23:25:13;;;;;;;9.20;3.05;;;;;;;12.64;100.00;100521.94;4806315;29;20035;-91
2023/07/24 23:28:25;;;;;;;5.75;2.80;;;;;;;12.64;100.00;100532.00;4805604;29;20477;-91
2023/07/24 23:31:13;;;;;;;7.10;3.10;;;;;;;12.60;100.00;100536.25;4805249;29;20090;-91